AirNav   Everest Fuels
 
 744 users online  

IN59 Jerry W Humphrey Seaplane Base
Newburgh, Indiana, USA

GOING TO NEWBURGH?


FAA INFORMATION EFFECTIVE 05 DECEMBER 2019

Location

FAA Identifier: IN59
Lat/Long: 37-56-42.1560N 087-25-28.0330W
37-56.702600N 087-25.467217W
37.9450433,-87.4244536
(estimated)
Elevation: 342 ft. / 104 m (estimated)
Variation: 00W (1985)
From city: 1 mile SW of NEWBURGH, IN
Time zone: UTC -6 (UTC -5 during Daylight Saving Time)
Zip code: 47630

Seaplane Base Operations

Seaplane Base use: Private use. Permission required prior to landing
Activation date: 02/1990
Control tower: no
ARTCC: INDIANAPOLIS CENTER
FSS: TERRE HAUTE FLIGHT SERVICE STATION
Attendance: UNATNDD
Segmented circle: no

Seaplane Base Communications

WX ASOS at EVV (8 nm NW): 120.2 (812-436-4681)
WX AWOS-3PT at EHR (15 nm SW): 118.85 (270-826-0511)
WX AWOS-3PT at OWB (17 nm SE): 119.025 (270-683-3228)

Nearby radio navigation aids

VOR radial/distance  VOR name  Freq  Var
PXVr083/16.0POCKET CITY VORTAC113.3003E
OWBr319/17.2OWENSBORO VOR/DME108.6004W
CCTr348/34.6CENTRAL CITY VORTAC109.8001W

Seaplane Base Services

Runway Information

Runway 9W/27W

Dimensions: 5000 x 1000 ft. / 1524 x 305 m
Surface: water
RUNWAY 9W  RUNWAY 27W
Traffic pattern: leftleft

Seaplane Base Ownership and Management from official FAA records

Ownership: Privately-owned
Owner: JERRY HUMPREY
549 GLEN EAGLES AVE
GULF SHORES, AL 36542-9041
Phone (215) 228-1668
Manager: JERRY HUMPREY
549 GLEN EAGLES AVE
GULF SHORES, AL 36542-9041
Phone (215) 228-1668

Additional Remarks

A58 800' TWR 7 MI SE; 893' STACKS 5 MI E; 1449'TWR 5 MI SW
FOR CD CTC EVANSVILLE APCH AT 812-436-4690, WHEN APCH CLSD CTC INDIANAPOLIS ARTCC AT 317-247-2411.

Instrument Procedures

There are no published instrument procedures at IN59.

Some nearby airports with instrument procedures:

KEVV - Evansville Regional Airport (8 nm NW)
KEHR - Henderson City-County Airport (15 nm SW)
KOWB - Owensboro-Daviess County Regional Airport (17 nm SE)
KY8 - Hancock County Airport-Ron Lewis Field (27 nm E)
KHNB - Huntingburg Airport (29 nm NE)
 
Loc | Ops | Rwys | IFR | FBO | Links
Com | Nav | Svcs | Stats | Notes
Area around IN59 (Jerry W Humphrey Seaplane Base)
 
Road maps at: MapQuest Bing Google
 
Aerial photo
No photo
 
Sectional chart

 
Airport distance calculator
Flying to Jerry W Humphrey Seaplane Base? Find the distance to fly.

From to IN59

Sunrise and sunset
Times for 15-Dec-2019
 Local
(UTC-6)
 Zulu
(UTC)
Morning civil twilight06:3012:30
Sunrise06:5912:59
Sunset16:3022:30
Evening civil twilight17:0023:00

Current date and time
Zulu (UTC)  15-Dec-2019 22:41:28
Local (UTC-6)  15-Dec-2019 16:41:28
 
METAR
KEVV 
8nm NW 
152154Z 06010KT 10SM OVC085 01/M04 A3007 RMK AO2 SLP187 T00111039
KI19 
8nm NE 
152216Z AUTO 00000KT 10SM OVC065 01/M05 A3014 RMK AO2 T00101053
KEHR 
14nm SW 
152156Z AUTO RMK AO2 SLPNO PWINO FZRANO $
KOWB 
18nm SE 
152156Z 07008KT 7SM OVC085 03/M02 A3006 RMK AO2 SLP182 T00281022
TAF
KEVV 
8nm NW 
151720Z 1518/1618 07005KT P6SM OVC100 FM152300 07007KT 6SM -SNRA OVC040 FM160100 06009KT 4SM -RA BR OVC025 FM160400 05009KT 4SM -RA BR OVC008 FM161400 01007KT 5SM -RA BR OVC005
KOWB 
18nm SE 
151720Z 1518/1618 07005KT P6SM VCSH OVC090 FM160100 08010KT 5SM -RA BR OVC027 FM160200 07010KT 4SM -RA BR OVC015 FM160400 07010KT 5SM -RA OVC007 FM161200 36007KT 6SM BR OVC005
NOTAMs
Click for the latest NOTAMs
NOTAMs are issued by the DoD/FAA and will open in a separate window not controlled by AirNav.

 

 
 

Would you like to see your business listed on this page?

 If your business provides an interesting product or service to pilots, flight crews, aircraft, or users of the Jerry W Humphrey Seaplane Base, you should consider listing it here.  To start the listing process, click on the button below
 
Add a business
 

Other Pages about Jerry W Humphrey Seaplane Base

Update a link
 
Copyright © AirNav, LLC. All rights reserved. Privacy Policy  Contact